sensor_id;sensor_type;location;lat;lon;timestamp;P1;durP1;ratioP1;P2;durP2;ratioP2
19664;SDS011;9980;51.020;7.772;2022-11-04T00:00:29;2.20;;;2.00;;
19664;SDS011;9980;51.020;7.772;2022-11-04T00:03:14;1.73;;;1.63;;
19664;SDS011;9980;51.020;7.772;2022-11-04T00:05:54;1.80;;;1.70;;
19664;SDS011;9980;51.020;7.772;2022-11-04T00:08:39;1.83;;;1.73;;
19664;SDS011;9980;51.020;7.772;2022-11-04T00:11:19;2.37;;;1.60;;
19664;SDS011;9980;51.020;7.772;2022-11-04T00:14:24;4.20;;;1.60;;
19664;SDS011;9980;51.020;7.772;2022-11-04T00:17:11;3.37;;;1.90;;
19664;SDS011;9980;51.020;7.772;2022-11-04T00:20:05;2.60;;;1.50;;
19664;SDS011;9980;51.020;7.772;2022-11-04T00:22:57;1.90;;;1.80;;
19664;SDS011;9980;51.020;7.772;2022-11-04T00:26:07;1.77;;;1.60;;
19664;SDS011;9980;51.020;7.772;2022-11-04T00:29:00;2.37;;;2.00;;
19664;SDS011;9980;51.020;7.772;2022-11-04T00:31:52;2.10;;;2.00;;
19664;SDS011;9980;51.020;7.772;2022-11-04T00:34:51;3.77;;;1.80;;
19664;SDS011;9980;51.020;7.772;2022-11-04T00:37:40;4.43;;;2.00;;
19664;SDS011;9980;51.020;7.772;2022-11-04T00:40:22;3.90;;;2.00;;
19664;SDS011;9980;51.020;7.772;2022-11-04T00:43:07;2.67;;;2.47;;
19664;SDS011;9980;51.020;7.772;2022-11-04T00:45:47;3.17;;;2.40;;
19664;SDS011;9980;51.020;7.772;2022-11-04T00:48:32;3.37;;;2.60;;
19664;SDS011;9980;51.020;7.772;2022-11-04T00:51:12;4.20;;;2.80;;
19664;SDS011;9980;51.020;7.772;2022-11-04T00:53:59;3.20;;;2.90;;
19664;SDS011;9980;51.020;7.772;2022-11-04T00:56:39;4.93;;;2.80;;
19664;SDS011;9980;51.020;7.772;2022-11-04T00:59:26;3.23;;;3.03;;
19664;SDS011;9980;51.020;7.772;2022-11-04T01:02:08;2.77;;;2.57;;
19664;SDS011;9980;51.020;7.772;2022-11-04T01:05:01;4.80;;;3.20;;
19664;SDS011;9980;51.020;7.772;2022-11-04T01:07:35;5.07;;;3.17;;
19664;SDS011;9980;51.020;7.772;2022-11-04T01:10:27;3.53;;;2.63;;
19664;SDS011;9980;51.020;7.772;2022-11-04T01:13:01;4.00;;;3.00;;
19664;SDS011;9980;51.020;7.772;2022-11-04T01:15:56;7.27;;;2.90;;
19664;SDS011;9980;51.020;7.772;2022-11-04T01:18:31;3.40;;;3.10;;
19664;SDS011;9980;51.020;7.772;2022-11-04T01:21:23;3.90;;;2.70;;
19664;SDS011;9980;51.020;7.772;2022-11-04T01:23:57;3.00;;;2.80;;
19664;SDS011;9980;51.020;7.772;2022-11-04T01:26:52;5.93;;;3.03;;
19664;SDS011;9980;51.020;7.772;2022-11-04T01:29:31;3.43;;;3.13;;
19664;SDS011;9980;51.020;7.772;2022-11-04T01:32:16;3.57;;;3.27;;
19664;SDS011;9980;51.020;7.772;2022-11-04T01:34:56;4.00;;;3.67;;
19664;SDS011;9980;51.020;7.772;2022-11-04T01:37:41;4.37;;;3.97;;
19664;SDS011;9980;51.020;7.772;2022-11-04T01:40:21;5.30;;;3.60;;
19664;SDS011;9980;51.020;7.772;2022-11-04T01:43:14;4.30;;;3.90;;
19664;SDS011;9980;51.020;7.772;2022-11-04T01:45:57;5.20;;;4.37;;
19664;SDS011;9980;51.020;7.772;2022-11-04T01:48:45;3.97;;;3.67;;
19664;SDS011;9980;51.020;7.772;2022-11-04T01:51:25;4.87;;;3.70;;
19664;SDS011;9980;51.020;7.772;2022-11-04T01:54:13;3.30;;;3.10;;
19664;SDS011;9980;51.020;7.772;2022-11-04T01:56:54;4.37;;;3.07;;
19664;SDS011;9980;51.020;7.772;2022-11-04T01:59:53;2.80;;;2.60;;
19664;SDS011;9980;51.020;7.772;2022-11-04T02:05:42;3.53;;;2.53;;
19664;SDS011;9980;51.020;7.772;2022-11-04T02:08:17;4.33;;;2.33;;
19664;SDS011;9980;51.020;7.772;2022-11-04T02:11:11;2.70;;;2.50;;
19664;SDS011;9980;51.020;7.772;2022-11-04T02:14:04;2.73;;;2.30;;
19664;SDS011;9980;51.020;7.772;2022-11-04T02:17:05;2.63;;;2.30;;
19664;SDS011;9980;51.020;7.772;2022-11-04T02:23:34;2.23;;;1.93;;
19664;SDS011;9980;51.020;7.772;2022-11-04T02:27:06;2.43;;;2.10;;
19664;SDS011;9980;51.020;7.772;2022-11-04T02:30:15;2.00;;;1.90;;
19664;SDS011;9980;51.020;7.772;2022-11-04T02:36:43;2.63;;;2.27;;
19664;SDS011;9980;51.020;7.772;2022-11-04T02:42:27;1.80;;;1.70;;
19664;SDS011;9980;51.020;7.772;2022-11-04T02:45:37;2.00;;;1.90;;
19664;SDS011;9980;51.020;7.772;2022-11-04T02:51:30;1.97;;;1.87;;
19664;SDS011;9980;51.020;7.772;2022-11-04T02:54:19;2.20;;;2.10;;
19664;SDS011;9980;51.020;7.772;2022-11-04T02:57:14;1.90;;;1.80;;
19664;SDS011;9980;51.020;7.772;2022-11-04T03:00:04;1.80;;;1.70;;
19664;SDS011;9980;51.020;7.772;2022-11-04T03:02:56;1.90;;;1.80;;
19664;SDS011;9980;51.020;7.772;2022-11-04T03:05:45;1.97;;;1.70;;
19664;SDS011;9980;51.020;7.772;2022-11-04T03:08:37;3.90;;;1.70;;
19664;SDS011;9980;51.020;7.772;2022-11-04T03:11:23;2.00;;;1.80;;
19664;SDS011;9980;51.020;7.772;2022-11-04T03:14:19;5.73;;;2.20;;
19664;SDS011;9980;51.020;7.772;2022-11-04T03:17:14;1.80;;;1.70;;
19664;SDS011;9980;51.020;7.772;2022-11-04T03:20:34;3.87;;;1.70;;
19664;SDS011;9980;51.020;7.772;2022-11-04T03:23:10;2.83;;;1.60;;
19664;SDS011;9980;51.020;7.772;2022-11-04T03:26:51;4.33;;;1.90;;
19664;SDS011;9980;51.020;7.772;2022-11-04T03:32:22;3.43;;;1.67;;
19664;SDS011;9980;51.020;7.772;2022-11-04T03:35:28;2.40;;;1.83;;
19664;SDS011;9980;51.020;7.772;2022-11-04T03:38:15;2.00;;;1.33;;
19664;SDS011;9980;51.020;7.772;2022-11-04T03:40:55;1.70;;;1.60;;
19664;SDS011;9980;51.020;7.772;2022-11-04T03:43:46;2.13;;;1.60;;
19664;SDS011;9980;51.020;7.772;2022-11-04T03:46:25;2.83;;;1.50;;
19664;SDS011;9980;51.020;7.772;2022-11-04T03:49:19;1.53;;;1.43;;
19664;SDS011;9980;51.020;7.772;2022-11-04T03:51:54;2.93;;;2.00;;
19664;SDS011;9980;51.020;7.772;2022-11-04T03:54:49;1.50;;;1.30;;
19664;SDS011;9980;51.020;7.772;2022-11-04T04:00:48;2.40;;;1.40;;
19664;SDS011;9980;51.020;7.772;2022-11-04T04:03:38;2.80;;;1.40;;
19664;SDS011;9980;51.020;7.772;2022-11-04T04:06:47;2.53;;;1.20;;
19664;SDS011;9980;51.020;7.772;2022-11-04T04:09:42;2.83;;;1.30;;
19664;SDS011;9980;51.020;7.772;2022-11-04T04:12:41;4.30;;;1.50;;
19664;SDS011;9980;51.020;7.772;2022-11-04T04:15:22;1.53;;;1.20;;
19664;SDS011;9980;51.020;7.772;2022-11-04T04:18:22;5.97;;;1.87;;
19664;SDS011;9980;51.020;7.772;2022-11-04T04:21:13;3.63;;;1.53;;
19664;SDS011;9980;51.020;7.772;2022-11-04T04:24:06;2.73;;;1.40;;
19664;SDS011;9980;51.020;7.772;2022-11-04T04:27:08;3.47;;;1.30;;
19664;SDS011;9980;51.020;7.772;2022-11-04T04:30:18;3.70;;;1.60;;
19664;SDS011;9980;51.020;7.772;2022-11-04T04:32:58;2.20;;;1.50;;
19664;SDS011;9980;51.020;7.772;2022-11-04T04:36:06;6.33;;;1.60;;
19664;SDS011;9980;51.020;7.772;2022-11-04T04:38:41;5.97;;;1.73;;
19664;SDS011;9980;51.020;7.772;2022-11-04T04:41:54;4.00;;;1.50;;
19664;SDS011;9980;51.020;7.772;2022-11-04T04:44:52;4.00;;;1.40;;
19664;SDS011;9980;51.020;7.772;2022-11-04T04:47:42;5.13;;;1.47;;
19664;SDS011;9980;51.020;7.772;2022-11-04T04:50:25;1.50;;;1.40;;
19664;SDS011;9980;51.020;7.772;2022-11-04T04:53:22;1.87;;;1.60;;
19664;SDS011;9980;51.020;7.772;2022-11-04T04:56:01;4.60;;;1.67;;
19664;SDS011;9980;51.020;7.772;2022-11-04T04:58:47;2.40;;;1.33;;
19664;SDS011;9980;51.020;7.772;2022-11-04T05:01:26;2.27;;;1.53;;
19664;SDS011;9980;51.020;7.772;2022-11-04T05:04:20;3.30;;;1.37;;
19664;SDS011;9980;51.020;7.772;2022-11-04T05:06:53;1.73;;;1.20;;
19664;SDS011;9980;51.020;7.772;2022-11-04T05:09:46;1.83;;;1.50;;
19664;SDS011;9980;51.020;7.772;2022-11-04T05:12:19;2.50;;;1.37;;
19664;SDS011;9980;51.020;7.772;2022-11-04T05:15:33;5.93;;;1.80;;
19664;SDS011;9980;51.020;7.772;2022-11-04T05:18:06;4.07;;;1.30;;
19664;SDS011;9980;51.020;7.772;2022-11-04T05:21:02;4.80;;;1.70;;
19664;SDS011;9980;51.020;7.772;2022-11-04T05:23:40;5.17;;;1.60;;
19664;SDS011;9980;51.020;7.772;2022-11-04T05:26:33;4.20;;;1.60;;
19664;SDS011;9980;51.020;7.772;2022-11-04T05:29:06;1.97;;;1.73;;
19664;SDS011;9980;51.020;7.772;2022-11-04T05:32:01;2.27;;;1.70;;
19664;SDS011;9980;51.020;7.772;2022-11-04T05:34:40;3.30;;;1.60;;
19664;SDS011;9980;51.020;7.772;2022-11-04T05:37:26;2.27;;;2.00;;
19664;SDS011;9980;51.020;7.772;2022-11-04T05:40:05;1.60;;;1.50;;
19664;SDS011;9980;51.020;7.772;2022-11-04T05:42:52;3.27;;;1.70;;
19664;SDS011;9980;51.020;7.772;2022-11-04T05:45:31;5.07;;;1.70;;
19664;SDS011;9980;51.020;7.772;2022-11-04T05:48:17;2.30;;;1.80;;
19664;SDS011;9980;51.020;7.772;2022-11-04T05:50:56;5.60;;;1.80;;
19664;SDS011;9980;51.020;7.772;2022-11-04T05:53:42;4.00;;;1.60;;
19664;SDS011;9980;51.020;7.772;2022-11-04T05:56:21;5.57;;;2.07;;
19664;SDS011;9980;51.020;7.772;2022-11-04T05:59:07;3.17;;;2.07;;
19664;SDS011;9980;51.020;7.772;2022-11-04T06:01:46;2.53;;;1.90;;
19664;SDS011;9980;51.020;7.772;2022-11-04T06:04:39;1.60;;;1.50;;
19664;SDS011;9980;51.020;7.772;2022-11-04T06:07:12;3.93;;;1.93;;
19664;SDS011;9980;51.020;7.772;2022-11-04T06:10:05;3.93;;;1.90;;
19664;SDS011;9980;51.020;7.772;2022-11-04T06:12:38;3.23;;;2.00;;
19664;SDS011;9980;51.020;7.772;2022-11-04T06:15:31;5.47;;;1.93;;
19664;SDS011;9980;51.020;7.772;2022-11-04T06:18:04;1.93;;;1.83;;
19664;SDS011;9980;51.020;7.772;2022-11-04T06:23:45;4.60;;;1.60;;
19664;SDS011;9980;51.020;7.772;2022-11-04T06:26:38;5.10;;;2.40;;
19664;SDS011;9980;51.020;7.772;2022-11-04T06:29:11;2.33;;;1.87;;
19664;SDS011;9980;51.020;7.772;2022-11-04T06:32:04;2.63;;;1.70;;
19664;SDS011;9980;51.020;7.772;2022-11-04T06:34:50;1.83;;;1.50;;
19664;SDS011;9980;51.020;7.772;2022-11-04T06:37:36;2.43;;;1.70;;
19664;SDS011;9980;51.020;7.772;2022-11-04T06:40:15;2.53;;;1.87;;
19664;SDS011;9980;51.020;7.772;2022-11-04T06:43:01;3.67;;;1.60;;
19664;SDS011;9980;51.020;7.772;2022-11-04T06:45:42;4.17;;;1.97;;
19664;SDS011;9980;51.020;7.772;2022-11-04T06:48:28;3.60;;;1.60;;
19664;SDS011;9980;51.020;7.772;2022-11-04T06:51:09;7.17;;;2.20;;
19664;SDS011;9980;51.020;7.772;2022-11-04T06:53:55;1.93;;;1.83;;
19664;SDS011;9980;51.020;7.772;2022-11-04T06:56:34;2.10;;;1.90;;
19664;SDS011;9980;51.020;7.772;2022-11-04T06:59:21;7.40;;;2.00;;
19664;SDS011;9980;51.020;7.772;2022-11-04T07:02:01;3.13;;;2.00;;
19664;SDS011;9980;51.020;7.772;2022-11-04T07:04:54;2.23;;;1.90;;
19664;SDS011;9980;51.020;7.772;2022-11-04T07:07:27;2.47;;;1.97;;
19664;SDS011;9980;51.020;7.772;2022-11-04T07:10:21;4.93;;;2.13;;
19664;SDS011;9980;51.020;7.772;2022-11-04T07:12:54;4.27;;;2.10;;
19664;SDS011;9980;51.020;7.772;2022-11-04T07:15:47;2.70;;;2.50;;
19664;SDS011;9980;51.020;7.772;2022-11-04T07:18:20;3.00;;;2.37;;
19664;SDS011;9980;51.020;7.772;2022-11-04T07:21:13;3.83;;;2.30;;
19664;SDS011;9980;51.020;7.772;2022-11-04T07:23:52;5.67;;;2.50;;
19664;SDS011;9980;51.020;7.772;2022-11-04T07:26:38;2.97;;;2.20;;
19664;SDS011;9980;51.020;7.772;2022-11-04T07:29:11;6.77;;;2.20;;
19664;SDS011;9980;51.020;7.772;2022-11-04T07:32:04;5.07;;;2.53;;
19664;SDS011;9980;51.020;7.772;2022-11-04T07:34:44;2.37;;;1.60;;
19664;SDS011;9980;51.020;7.772;2022-11-04T07:37:30;2.63;;;2.10;;
19664;SDS011;9980;51.020;7.772;2022-11-04T07:40:09;2.50;;;2.03;;
19664;SDS011;9980;51.020;7.772;2022-11-04T07:42:56;7.60;;;2.40;;
19664;SDS011;9980;51.020;7.772;2022-11-04T07:45:36;2.47;;;1.93;;
19664;SDS011;9980;51.020;7.772;2022-11-04T07:48:22;4.97;;;2.30;;
19664;SDS011;9980;51.020;7.772;2022-11-04T07:51:01;7.47;;;2.77;;
19664;SDS011;9980;51.020;7.772;2022-11-04T07:53:50;4.93;;;2.50;;
19664;SDS011;9980;51.020;7.772;2022-11-04T07:56:29;5.57;;;2.50;;
19664;SDS011;9980;51.020;7.772;2022-11-04T07:59:15;3.53;;;3.00;;
19664;SDS011;9980;51.020;7.772;2022-11-04T08:01:54;8.20;;;3.07;;
19664;SDS011;9980;51.020;7.772;2022-11-04T08:04:47;5.13;;;3.00;;
19664;SDS011;9980;51.020;7.772;2022-11-04T08:07:20;3.30;;;3.00;;
19664;SDS011;9980;51.020;7.772;2022-11-04T08:10:13;4.03;;;3.10;;
19664;SDS011;9980;51.020;7.772;2022-11-04T08:12:46;7.03;;;3.10;;
19664;SDS011;9980;51.020;7.772;2022-11-04T08:15:39;7.70;;;2.60;;
19664;SDS011;9980;51.020;7.772;2022-11-04T08:18:12;4.30;;;2.50;;
19664;SDS011;9980;51.020;7.772;2022-11-04T08:21:05;4.27;;;2.77;;
19664;SDS011;9980;51.020;7.772;2022-11-04T08:23:38;5.07;;;2.40;;
19664;SDS011;9980;51.020;7.772;2022-11-04T08:26:32;8.87;;;2.13;;
19664;SDS011;9980;51.020;7.772;2022-11-04T08:29:06;4.90;;;2.57;;
19664;SDS011;9980;51.020;7.772;2022-11-04T08:32:00;6.90;;;2.77;;
19664;SDS011;9980;51.020;7.772;2022-11-04T08:34:33;3.80;;;2.60;;
19664;SDS011;9980;51.020;7.772;2022-11-04T08:37:26;3.47;;;2.37;;
19664;SDS011;9980;51.020;7.772;2022-11-04T08:40:05;4.60;;;2.30;;
19664;SDS011;9980;51.020;7.772;2022-11-04T08:42:52;4.13;;;2.10;;
19664;SDS011;9980;51.020;7.772;2022-11-04T08:45:31;6.30;;;2.70;;
19664;SDS011;9980;51.020;7.772;2022-11-04T08:48:17;3.50;;;2.50;;
19664;SDS011;9980;51.020;7.772;2022-11-04T08:50:56;3.33;;;2.10;;
19664;SDS011;9980;51.020;7.772;2022-11-04T08:53:43;8.63;;;2.17;;
19664;SDS011;9980;51.020;7.772;2022-11-04T08:56:23;6.07;;;2.13;;
19664;SDS011;9980;51.020;7.772;2022-11-04T08:59:23;4.07;;;2.10;;
19664;SDS011;9980;51.020;7.772;2022-11-04T09:02:02;2.90;;;2.00;;
19664;SDS011;9980;51.020;7.772;2022-11-04T09:04:55;4.60;;;1.70;;
19664;SDS011;9980;51.020;7.772;2022-11-04T09:07:28;6.53;;;1.97;;
19664;SDS011;9980;51.020;7.772;2022-11-04T09:10:21;5.40;;;1.90;;
19664;SDS011;9980;51.020;7.772;2022-11-04T09:12:54;6.57;;;2.20;;
19664;SDS011;9980;51.020;7.772;2022-11-04T09:15:47;8.17;;;2.10;;
19664;SDS011;9980;51.020;7.772;2022-11-04T09:18:26;6.70;;;2.07;;
19664;SDS011;9980;51.020;7.772;2022-11-04T09:21:19;8.43;;;2.00;;
19664;SDS011;9980;51.020;7.772;2022-11-04T09:23:52;9.00;;;2.03;;
19664;SDS011;9980;51.020;7.772;2022-11-04T09:26:46;6.70;;;2.07;;
19664;SDS011;9980;51.020;7.772;2022-11-04T09:29:25;3.40;;;1.90;;
19664;SDS011;9980;51.020;7.772;2022-11-04T09:32:12;2.80;;;1.80;;
19664;SDS011;9980;51.020;7.772;2022-11-04T09:34:51;5.70;;;1.60;;
19664;SDS011;9980;51.020;7.772;2022-11-04T09:37:37;3.97;;;1.90;;
19664;SDS011;9980;51.020;7.772;2022-11-04T09:40:16;6.70;;;2.33;;
19664;SDS011;9980;51.020;7.772;2022-11-04T09:43:19;5.27;;;1.83;;
19664;SDS011;9980;51.020;7.772;2022-11-04T09:46:30;5.13;;;1.67;;
19664;SDS011;9980;51.020;7.772;2022-11-04T09:49:26;8.03;;;2.07;;
19664;SDS011;9980;51.020;7.772;2022-11-04T09:58:45;4.57;;;1.90;;
19664;SDS011;9980;51.020;7.772;2022-11-04T10:01:52;4.30;;;1.83;;
19664;SDS011;9980;51.020;7.772;2022-11-04T10:05:03;3.10;;;1.97;;
19664;SDS011;9980;51.020;7.772;2022-11-04T10:08:23;4.50;;;2.13;;
19664;SDS011;9980;51.020;7.772;2022-11-04T10:11:34;5.27;;;1.97;;
19664;SDS011;9980;51.020;7.772;2022-11-04T10:21:29;2.23;;;1.70;;
19664;SDS011;9980;51.020;7.772;2022-11-04T10:27:58;2.30;;;1.60;;
19664;SDS011;9980;51.020;7.772;2022-11-04T10:30:38;1.87;;;1.60;;
19664;SDS011;9980;51.020;7.772;2022-11-04T10:36:46;2.33;;;1.30;;
19664;SDS011;9980;51.020;7.772;2022-11-04T10:39:44;3.10;;;1.30;;
19664;SDS011;9980;51.020;7.772;2022-11-04T10:42:18;1.77;;;1.40;;
19664;SDS011;9980;51.020;7.772;2022-11-04T10:45:13;7.23;;;1.43;;
19664;SDS011;9980;51.020;7.772;2022-11-04T10:47:48;3.30;;;1.30;;
19664;SDS011;9980;51.020;7.772;2022-11-04T10:50:53;3.40;;;1.90;;
19664;SDS011;9980;51.020;7.772;2022-11-04T10:53:30;5.33;;;1.80;;
19664;SDS011;9980;51.020;7.772;2022-11-04T10:56:41;2.37;;;1.40;;
19664;SDS011;9980;51.020;7.772;2022-11-04T10:59:25;3.70;;;1.30;;
19664;SDS011;9980;51.020;7.772;2022-11-04T11:08:03;4.03;;;1.80;;
19664;SDS011;9980;51.020;7.772;2022-11-04T11:10:48;2.60;;;1.40;;
19664;SDS011;9980;51.020;7.772;2022-11-04T11:13:38;2.90;;;1.20;;
19664;SDS011;9980;51.020;7.772;2022-11-04T11:16:24;3.17;;;1.63;;
19664;SDS011;9980;51.020;7.772;2022-11-04T11:19:19;2.40;;;1.13;;
19664;SDS011;9980;51.020;7.772;2022-11-04T11:22:03;2.40;;;1.43;;
19664;SDS011;9980;51.020;7.772;2022-11-04T11:28:09;1.67;;;1.40;;
19664;SDS011;9980;51.020;7.772;2022-11-04T11:31:13;7.67;;;1.40;;
19664;SDS011;9980;51.020;7.772;2022-11-04T11:34:05;1.63;;;1.50;;
19664;SDS011;9980;51.020;7.772;2022-11-04T11:37:17;2.00;;;1.27;;
19664;SDS011;9980;51.020;7.772;2022-11-04T11:39:56;3.13;;;1.23;;
19664;SDS011;9980;51.020;7.772;2022-11-04T11:42:39;4.40;;;1.50;;
19664;SDS011;9980;51.020;7.772;2022-11-04T11:45:33;3.37;;;1.40;;
19664;SDS011;9980;51.020;7.772;2022-11-04T11:48:26;3.37;;;1.20;;
19664;SDS011;9980;51.020;7.772;2022-11-04T11:51:35;1.63;;;1.20;;
19664;SDS011;9980;51.020;7.772;2022-11-04T11:54:19;2.13;;;1.50;;
19664;SDS011;9980;51.020;7.772;2022-11-04T12:00:59;1.90;;;1.00;;
19664;SDS011;9980;51.020;7.772;2022-11-04T12:04:03;4.33;;;1.60;;
19664;SDS011;9980;51.020;7.772;2022-11-04T12:10:35;2.30;;;1.47;;
19664;SDS011;9980;51.020;7.772;2022-11-04T12:13:41;2.70;;;1.43;;
19664;SDS011;9980;51.020;7.772;2022-11-04T12:19:49;2.70;;;1.60;;
19664;SDS011;9980;51.020;7.772;2022-11-04T12:26:10;1.77;;;1.10;;
19664;SDS011;9980;51.020;7.772;2022-11-04T12:32:23;2.60;;;1.10;;
19664;SDS011;9980;51.020;7.772;2022-11-04T12:42:16;2.63;;;1.40;;
19664;SDS011;9980;51.020;7.772;2022-11-04T12:48:49;5.80;;;1.37;;
19664;SDS011;9980;51.020;7.772;2022-11-04T12:52:29;1.43;;;1.20;;
19664;SDS011;9980;51.020;7.772;2022-11-04T13:02:19;1.67;;;1.30;;
19664;SDS011;9980;51.020;7.772;2022-11-04T13:05:29;2.93;;;1.43;;
19664;SDS011;9980;51.020;7.772;2022-11-04T13:08:28;11.33;;;1.50;;
19664;SDS011;9980;51.020;7.772;2022-11-04T13:11:34;2.63;;;1.50;;
19664;SDS011;9980;51.020;7.772;2022-11-04T13:14:19;2.53;;;1.20;;
19664;SDS011;9980;51.020;7.772;2022-11-04T13:17:20;2.97;;;1.70;;
19664;SDS011;9980;51.020;7.772;2022-11-04T13:22:57;1.73;;;1.20;;
19664;SDS011;9980;51.020;7.772;2022-11-04T13:25:43;3.83;;;1.30;;
19664;SDS011;9980;51.020;7.772;2022-11-04T13:28:47;2.47;;;1.40;;
19664;SDS011;9980;51.020;7.772;2022-11-04T13:34:37;6.23;;;1.50;;
19664;SDS011;9980;51.020;7.772;2022-11-04T13:37:43;2.57;;;1.60;;
19664;SDS011;9980;51.020;7.772;2022-11-04T13:40:40;1.60;;;1.30;;
19664;SDS011;9980;51.020;7.772;2022-11-04T13:44:19;2.43;;;1.30;;
19664;SDS011;9980;51.020;7.772;2022-11-04T13:47:14;3.57;;;1.27;;
19664;SDS011;9980;51.020;7.772;2022-11-04T13:50:14;2.73;;;1.60;;
19664;SDS011;9980;51.020;7.772;2022-11-04T13:53:11;2.10;;;1.60;;
19664;SDS011;9980;51.020;7.772;2022-11-04T13:56:06;2.37;;;1.60;;
19664;SDS011;9980;51.020;7.772;2022-11-04T14:00:04;4.83;;;1.50;;
19664;SDS011;9980;51.020;7.772;2022-11-04T14:04:53;4.27;;;1.77;;
19664;SDS011;9980;51.020;7.772;2022-11-04T14:13:41;2.13;;;1.53;;
19664;SDS011;9980;51.020;7.772;2022-11-04T14:25:35;3.23;;;1.70;;
19664;SDS011;9980;51.020;7.772;2022-11-04T14:31:05;2.73;;;1.60;;
19664;SDS011;9980;51.020;7.772;2022-11-04T14:33:52;5.37;;;1.93;;
19664;SDS011;9980;51.020;7.772;2022-11-04T14:36:53;3.33;;;1.80;;
19664;SDS011;9980;51.020;7.772;2022-11-04T14:39:55;3.53;;;2.23;;
19664;SDS011;9980;51.020;7.772;2022-11-04T14:42:53;7.50;;;2.07;;
19664;SDS011;9980;51.020;7.772;2022-11-04T14:45:37;7.80;;;2.00;;
19664;SDS011;9980;51.020;7.772;2022-11-04T14:48:24;2.23;;;2.03;;
19664;SDS011;9980;51.020;7.772;2022-11-04T14:51:16;5.60;;;5.03;;
19664;SDS011;9980;51.020;7.772;2022-11-04T14:54:21;5.17;;;3.90;;
19664;SDS011;9980;51.020;7.772;2022-11-04T14:57:20;4.57;;;2.47;;
19664;SDS011;9980;51.020;7.772;2022-11-04T15:06:34;10.33;;;9.40;;
19664;SDS011;9980;51.020;7.772;2022-11-04T15:09:26;8.00;;;7.30;;
19664;SDS011;9980;51.020;7.772;2022-11-04T15:12:26;3.30;;;3.00;;
19664;SDS011;9980;51.020;7.772;2022-11-04T15:15:25;4.30;;;2.10;;
19664;SDS011;9980;51.020;7.772;2022-11-04T15:18:24;8.33;;;2.17;;
19664;SDS011;9980;51.020;7.772;2022-11-04T15:21:06;2.80;;;1.90;;
19664;SDS011;9980;51.020;7.772;2022-11-04T15:23:54;6.93;;;2.07;;
19664;SDS011;9980;51.020;7.772;2022-11-04T15:26:34;2.47;;;1.87;;
19664;SDS011;9980;51.020;7.772;2022-11-04T15:29:21;4.77;;;2.30;;
19664;SDS011;9980;51.020;7.772;2022-11-04T15:32:03;3.80;;;2.27;;
19664;SDS011;9980;51.020;7.772;2022-11-04T15:34:49;2.53;;;2.33;;
19664;SDS011;9980;51.020;7.772;2022-11-04T15:37:30;7.43;;;6.37;;
19664;SDS011;9980;51.020;7.772;2022-11-04T15:40:25;9.83;;;5.40;;
19664;SDS011;9980;51.020;7.772;2022-11-04T15:43:00;5.03;;;3.67;;
19664;SDS011;9980;51.020;7.772;2022-11-04T15:45:56;4.37;;;3.50;;
19664;SDS011;9980;51.020;7.772;2022-11-04T15:48:35;4.33;;;2.90;;
19664;SDS011;9980;51.020;7.772;2022-11-04T15:51:28;6.13;;;2.87;;
19664;SDS011;9980;51.020;7.772;2022-11-04T15:54:17;6.47;;;2.57;;
19664;SDS011;9980;51.020;7.772;2022-11-04T15:57:20;7.90;;;6.00;;
19664;SDS011;9980;51.020;7.772;2022-11-04T15:59:59;4.20;;;3.70;;
19664;SDS011;9980;51.020;7.772;2022-11-04T16:02:57;3.93;;;3.63;;
19664;SDS011;9980;51.020;7.772;2022-11-04T16:05:38;4.83;;;2.57;;
19664;SDS011;9980;51.020;7.772;2022-11-04T16:08:26;4.63;;;1.93;;
19664;SDS011;9980;51.020;7.772;2022-11-04T16:11:14;3.77;;;2.80;;
19664;SDS011;9980;51.020;7.772;2022-11-04T16:17:13;3.57;;;2.40;;
19664;SDS011;9980;51.020;7.772;2022-11-04T16:20:03;4.37;;;3.40;;
19664;SDS011;9980;51.020;7.772;2022-11-04T16:22:44;3.83;;;3.40;;
19664;SDS011;9980;51.020;7.772;2022-11-04T16:25:38;6.53;;;3.33;;
19664;SDS011;9980;51.020;7.772;2022-11-04T16:28:21;2.30;;;2.10;;
19664;SDS011;9980;51.020;7.772;2022-11-04T16:33:52;4.10;;;2.70;;
19664;SDS011;9980;51.020;7.772;2022-11-04T16:36:46;4.00;;;2.30;;
19664;SDS011;9980;51.020;7.772;2022-11-04T16:39:19;2.67;;;2.37;;
19664;SDS011;9980;51.020;7.772;2022-11-04T16:42:12;4.67;;;4.27;;
19664;SDS011;9980;51.020;7.772;2022-11-04T16:44:47;4.33;;;3.90;;
19664;SDS011;9980;51.020;7.772;2022-11-04T16:47:46;4.23;;;3.57;;
19664;SDS011;9980;51.020;7.772;2022-11-04T16:50:25;7.30;;;3.90;;
19664;SDS011;9980;51.020;7.772;2022-11-04T16:53:12;4.50;;;4.13;;
19664;SDS011;9980;51.020;7.772;2022-11-04T16:55:51;10.37;;;5.43;;
19664;SDS011;9980;51.020;7.772;2022-11-04T16:58:39;4.80;;;4.30;;
19664;SDS011;9980;51.020;7.772;2022-11-04T17:01:18;8.17;;;4.57;;
19664;SDS011;9980;51.020;7.772;2022-11-04T17:04:04;3.90;;;3.50;;
19664;SDS011;9980;51.020;7.772;2022-11-04T17:06:44;5.87;;;4.20;;
19664;SDS011;9980;51.020;7.772;2022-11-04T17:09:30;4.13;;;3.67;;
19664;SDS011;9980;51.020;7.772;2022-11-04T17:12:09;5.13;;;3.00;;
19664;SDS011;9980;51.020;7.772;2022-11-04T17:15:03;4.37;;;3.57;;
19664;SDS011;9980;51.020;7.772;2022-11-04T17:17:43;11.73;;;3.37;;
19664;SDS011;9980;51.020;7.772;2022-11-04T17:20:38;13.70;;;3.27;;
19664;SDS011;9980;51.020;7.772;2022-11-04T17:23:23;3.53;;;3.23;;
19664;SDS011;9980;51.020;7.772;2022-11-04T17:26:16;4.90;;;2.97;;
19664;SDS011;9980;51.020;7.772;2022-11-04T17:28:49;4.10;;;3.37;;
19664;SDS011;9980;51.020;7.772;2022-11-04T17:31:42;3.47;;;3.03;;
19664;SDS011;9980;51.020;7.772;2022-11-04T17:34:41;2.87;;;2.67;;
19664;SDS011;9980;51.020;7.772;2022-11-04T17:37:34;5.53;;;3.40;;
19664;SDS011;9980;51.020;7.772;2022-11-04T17:40:08;5.87;;;3.90;;
19664;SDS011;9980;51.020;7.772;2022-11-04T17:43:08;7.13;;;4.90;;
19664;SDS011;9980;51.020;7.772;2022-11-04T17:46:06;4.33;;;4.03;;
19664;SDS011;9980;51.020;7.772;2022-11-04T17:49:13;6.60;;;5.20;;
19664;SDS011;9980;51.020;7.772;2022-11-04T17:51:59;6.07;;;4.47;;
19664;SDS011;9980;51.020;7.772;2022-11-04T17:54:45;6.87;;;5.13;;
19664;SDS011;9980;51.020;7.772;2022-11-04T17:57:24;5.53;;;4.67;;
19664;SDS011;9980;51.020;7.772;2022-11-04T18:00:10;5.10;;;3.77;;
19664;SDS011;9980;51.020;7.772;2022-11-04T18:02:51;6.53;;;5.43;;
19664;SDS011;9980;51.020;7.772;2022-11-04T18:05:44;4.40;;;4.10;;
19664;SDS011;9980;51.020;7.772;2022-11-04T18:08:17;4.97;;;4.47;;
19664;SDS011;9980;51.020;7.772;2022-11-04T18:11:13;8.00;;;5.30;;
19664;SDS011;9980;51.020;7.772;2022-11-04T18:14:06;7.87;;;5.17;;
19664;SDS011;9980;51.020;7.772;2022-11-04T18:17:00;6.60;;;5.57;;
19664;SDS011;9980;51.020;7.772;2022-11-04T18:19:33;4.43;;;3.80;;
19664;SDS011;9980;51.020;7.772;2022-11-04T18:22:26;6.80;;;5.87;;
19664;SDS011;9980;51.020;7.772;2022-11-04T18:24:59;6.03;;;5.33;;
19664;SDS011;9980;51.020;7.772;2022-11-04T18:27:53;6.10;;;4.60;;
19664;SDS011;9980;51.020;7.772;2022-11-04T18:30:32;5.27;;;4.77;;
19664;SDS011;9980;51.020;7.772;2022-11-04T18:33:18;11.80;;;4.77;;
19664;SDS011;9980;51.020;7.772;2022-11-04T18:36:00;5.03;;;4.00;;
19664;SDS011;9980;51.020;7.772;2022-11-04T18:38:49;5.00;;;4.03;;
19664;SDS011;9980;51.020;7.772;2022-11-04T18:41:28;7.27;;;5.03;;
19664;SDS011;9980;51.020;7.772;2022-11-04T18:44:15;6.37;;;5.43;;
19664;SDS011;9980;51.020;7.772;2022-11-04T18:46:59;8.30;;;6.30;;
19664;SDS011;9980;51.020;7.772;2022-11-04T18:49:46;6.93;;;6.33;;
19664;SDS011;9980;51.020;7.772;2022-11-04T18:52:25;6.03;;;5.50;;
19664;SDS011;9980;51.020;7.772;2022-11-04T18:55:18;5.43;;;4.97;;
19664;SDS011;9980;51.020;7.772;2022-11-04T18:57:54;4.87;;;4.17;;
19664;SDS011;9980;51.020;7.772;2022-11-04T19:00:47;3.90;;;3.60;;
19664;SDS011;9980;51.020;7.772;2022-11-04T19:03:20;4.07;;;3.67;;
19664;SDS011;9980;51.020;7.772;2022-11-04T19:06:15;4.80;;;4.40;;
19664;SDS011;9980;51.020;7.772;2022-11-04T19:09:02;4.57;;;4.00;;
19664;SDS011;9980;51.020;7.772;2022-11-04T19:12:19;4.60;;;3.70;;
19664;SDS011;9980;51.020;7.772;2022-11-04T19:15:10;6.03;;;4.77;;
19664;SDS011;9980;51.020;7.772;2022-11-04T19:18:03;7.10;;;5.17;;
19664;SDS011;9980;51.020;7.772;2022-11-04T19:20:42;4.23;;;3.93;;